Time;durP1;ratioP1;P1;durP2;ratioP2;P2;SDS_P1;SDS_P2;PMS_P1;PMS_P2;Temp;Humidity;BMP_temperature;BMP_pressure;BME280_temperature;BME280_humidity;BME280_pressure;Samples;Min_cycle;Max_cycle;Signal;HPM_P1;HPM_P2
2023/02/06 00:01:15;;;;;;;11.48;5.35;;;2.40;99.90;;;;;;5011085;28;20026;-71
2023/02/06 00:03:41;;;;;;;19.80;5.88;;;2.40;99.90;;;;;;5022791;28;20033;-70
2023/02/06 00:06:07;;;;;;;12.52;6.43;;;2.50;99.90;;;;;;5016402;28;20025;-70
2023/02/06 00:08:33;;;;;;;10.82;6.22;;;2.50;99.90;;;;;;5020131;28;20102;-71
2023/02/06 00:11:03;;;;;;;10.48;5.40;;;2.60;99.90;;;;;;5014333;28;20044;-70
2023/02/06 00:13:29;;;;;;;11.50;5.95;;;2.50;99.90;;;;;;5011489;28;20018;-70
2023/02/06 00:15:54;;;;;;;12.73;5.97;;;2.50;99.90;;;;;;5010568;28;20052;-70
2023/02/06 00:18:20;;;;;;;10.93;6.03;;;2.70;99.90;;;;;;5011531;28;20038;-69
2023/02/06 00:20:46;;;;;;;15.45;6.82;;;2.70;99.90;;;;;;5013732;28;20026;-70
2023/02/06 00:23:11;;;;;;;9.50;6.05;;;2.80;99.90;;;;;;5018723;28;20030;-69
2023/02/06 00:25:37;;;;;;;12.52;5.72;;;2.90;99.90;;;;;;5018557;28;20481;-70
2023/02/06 00:28:03;;;;;;;12.52;5.13;;;2.90;99.90;;;;;;5012143;28;20029;-70
2023/02/06 00:30:28;;;;;;;9.63;6.28;;;3.00;99.90;;;;;;5019165;28;20030;-69
2023/02/06 00:32:54;;;;;;;14.07;6.53;;;3.00;99.90;;;;;;5012190;28;20041;-69
2023/02/06 00:35:20;;;;;;;11.10;5.72;;;3.00;99.90;;;;;;5018231;28;20440;-69
2023/02/06 00:37:45;;;;;;;9.18;5.45;;;3.00;99.90;;;;;;5012310;28;20109;-70
2023/02/06 00:40:11;;;;;;;9.27;5.55;;;3.00;99.90;;;;;;5020501;28;20034;-70
2023/02/06 00:42:36;;;;;;;9.30;4.82;;;2.90;99.90;;;;;;5025720;28;20040;-70
2023/02/06 00:45:02;;;;;;;13.77;5.88;;;2.90;99.90;;;;;;5017986;28;20049;-69
2023/02/06 00:47:28;;;;;;;17.98;6.68;;;2.90;99.90;;;;;;5013214;28;20368;-69
2023/02/06 00:49:54;;;;;;;10.52;5.82;;;2.80;99.90;;;;;;5023470;28;20041;-70
2023/02/06 00:52:19;;;;;;;10.10;5.45;;;2.80;99.90;;;;;;5015122;28;20025;-70
2023/02/06 00:54:45;;;;;;;12.65;5.05;;;2.80;99.90;;;;;;5021886;28;20068;-69
2023/02/06 00:57:10;;;;;;;8.73;5.03;;;2.80;99.90;;;;;;5021460;28;20403;-70
2023/02/06 00:59:36;;;;;;;12.90;5.93;;;2.70;99.90;;;;;;5019693;28;20065;-69
2023/02/06 01:02:02;;;;;;;11.00;5.75;;;2.70;99.90;;;;;;5014011;28;20084;-70
2023/02/06 01:04:27;;;;;;;11.07;5.22;;;2.60;99.90;;;;;;5021313;28;20129;-70
2023/02/06 01:06:53;;;;;;;9.13;5.75;;;2.60;99.90;;;;;;5017399;28;20395;-70
2023/02/06 01:09:19;;;;;;;9.77;5.55;;;2.70;99.90;;;;;;5023475;28;20029;-69
2023/02/06 01:11:44;;;;;;;9.30;5.72;;;2.70;99.90;;;;;;5016466;28;20092;-69
2023/02/06 01:14:10;;;;;;;10.98;6.00;;;2.60;99.90;;;;;;5013342;28;20372;-69
2023/02/06 01:16:35;;;;;;;12.63;5.78;;;2.70;99.90;;;;;;5019446;28;20033;-69
2023/02/06 01:19:01;;;;;;;15.23;7.25;;;2.60;99.90;;;;;;5021318;28;20381;-70
2023/02/06 01:21:27;;;;;;;12.45;5.82;;;2.70;99.90;;;;;;5018558;28;20029;-70
2023/02/06 01:23:53;;;;;;;11.98;6.65;;;2.70;99.90;;;;;;5015676;28;20030;-69
2023/02/06 01:26:22;;;;;;;14.93;6.40;;;2.80;99.90;;;;;;5022338;28;20037;-70
2023/02/06 01:28:48;;;;;;;13.20;6.32;;;2.80;99.90;;;;;;5019281;28;20029;-70
2023/02/06 01:31:20;;;;;;;13.55;6.75;;;2.90;99.90;;;;;;5018774;28;20026;-69
2023/02/06 01:33:47;;;;;;;12.23;6.18;;;2.90;99.90;;;;;;5009166;28;20479;-70
2023/02/06 01:36:14;;;;;;;11.70;5.93;;;2.80;99.90;;;;;;5011829;28;20112;-69
2023/02/06 01:38:40;;;;;;;11.60;5.43;;;2.80;99.90;;;;;;5015854;28;20092;-70
2023/02/06 01:41:07;;;;;;;8.52;4.60;;;2.40;99.90;;;;;;5019752;28;20033;-70
2023/02/06 01:43:37;;;;;;;14.75;6.20;;;2.50;99.90;;;;;;5026251;28;20048;-70
2023/02/06 01:46:04;;;;;;;9.90;5.28;;;2.50;99.90;;;;;;5020195;28;20509;-69
2023/02/06 01:48:40;;;;;;;10.43;5.10;;;2.50;99.90;;;;;;5016658;28;20676;-70
2023/02/06 01:51:10;;;;;;;11.18;5.68;;;2.50;99.90;;;;;;5021253;28;20025;-69
2023/02/06 01:53:37;;;;;;;13.13;5.63;;;2.40;99.90;;;;;;5021674;28;20030;-70
2023/02/06 01:56:06;;;;;;;9.82;5.88;;;2.30;99.90;;;;;;5020209;28;20064;-69
2023/02/06 01:58:36;;;;;;;10.10;5.22;;;2.30;99.90;;;;;;5022529;28;20033;-69
2023/02/06 02:01:02;;;;;;;9.60;5.40;;;2.30;99.90;;;;;;5014895;28;20697;-70
2023/02/06 02:03:30;;;;;;;10.23;6.10;;;2.40;99.90;;;;;;5015306;28;20483;-70
2023/02/06 02:06:00;;;;;;;11.20;5.88;;;2.30;99.90;;;;;;5027260;28;20115;-69
2023/02/06 02:08:32;;;;;;;12.95;5.88;;;2.30;99.90;;;;;;5012187;28;20071;-70
2023/02/06 02:11:00;;;;;;;9.45;5.20;;;2.20;99.90;;;;;;5020116;28;20064;-70
2023/02/06 02:13:25;;;;;;;12.50;5.15;;;2.10;99.90;;;;;;5016520;28;20021;-70
2023/02/06 02:15:57;;;;;;;9.35;5.13;;;2.10;99.90;;;;;;5010756;28;20497;-70
2023/02/06 02:18:37;;;;;;;9.65;5.32;;;1.90;99.90;;;;;;5015147;28;20103;-69
2023/02/06 02:21:36;;;;;;;10.00;5.70;;;1.90;99.90;;;;;;5010435;28;20056;-70
2023/02/06 02:24:41;;;;;;;11.75;4.68;;;1.80;99.90;;;;;;5016231;28;20033;-69
2023/02/06 02:27:13;;;;;;;9.75;4.63;;;1.80;99.90;;;;;;5010293;28;20479;-70
2023/02/06 02:30:00;;;;;;;7.10;3.30;;;1.60;99.90;;;;;;5024609;28;20033;-70
2023/02/06 02:32:31;;;;;;;9.10;4.57;;;1.80;99.90;;;;;;5013862;28;21249;-70
2023/02/06 02:35:04;;;;;;;12.65;4.90;;;2.10;99.90;;;;;;5010372;28;20029;-70
2023/02/06 02:37:35;;;;;;;8.77;4.43;;;2.00;99.90;;;;;;5012002;28;20026;-70
2023/02/06 02:40:30;;;;;;;7.90;4.57;;;2.00;99.90;;;;;;5011132;28;20534;-70
2023/02/06 02:43:04;;;;;;;9.05;4.15;;;2.00;99.90;;;;;;5013727;28;20048;-69
2023/02/06 02:45:43;;;;;;;8.25;4.72;;;1.80;99.90;;;;;;5017915;28;20503;-70
2023/02/06 02:48:24;;;;;;;10.18;3.65;;;1.90;99.90;;;;;;5019615;28;20040;-70
2023/02/06 02:50:52;;;;;;;7.75;3.80;;;1.90;99.90;;;;;;5017829;28;20041;-69
2023/02/06 02:53:18;;;;;;;10.60;4.15;;;1.80;99.90;;;;;;5017446;28;20483;-70
2023/02/06 02:55:44;;;;;;;7.25;4.05;;;1.80;99.90;;;;;;5013336;28;20484;-70
2023/02/06 02:58:13;;;;;;;9.43;4.15;;;1.70;99.90;;;;;;5025813;28;20065;-70
2023/02/06 03:00:43;;;;;;;7.22;4.22;;;1.80;99.90;;;;;;5014135;28;20126;-70
2023/02/06 03:03:12;;;;;;;7.85;3.35;;;1.90;99.90;;;;;;5016981;28;20064;-71
2023/02/06 03:06:00;;;;;;;6.15;3.10;;;2.00;99.90;;;;;;5012338;28;20022;-70
2023/02/06 03:08:55;;;;;;;9.25;3.92;;;1.90;99.90;;;;;;5005130;28;20038;-69
2023/02/06 03:11:21;;;;;;;6.32;3.58;;;1.70;99.90;;;;;;5012664;28;20044;-70
2023/02/06 03:13:56;;;;;;;7.63;3.75;;;1.70;99.90;;;;;;5017628;28;20029;-69
2023/02/06 03:16:33;;;;;;;9.02;3.97;;;1.80;99.90;;;;;;5015681;28;20034;-69
2023/02/06 03:19:03;;;;;;;7.53;4.18;;;1.90;99.90;;;;;;5028264;28;20121;-70
2023/02/06 03:21:31;;;;;;;7.93;3.63;;;2.10;99.90;;;;;;5024888;28;20040;-70
2023/02/06 03:24:00;;;;;;;8.50;3.70;;;2.20;99.90;;;;;;5017413;28;20375;-70
2023/02/06 03:26:29;;;;;;;9.75;5.03;;;2.20;99.90;;;;;;5017352;28;20025;-70
2023/02/06 03:29:01;;;;;;;10.27;3.15;;;2.30;99.90;;;;;;5020568;28;20059;-70
2023/02/06 03:32:06;;;;;;;6.82;3.75;;;2.40;99.90;;;;;;5023760;28;20045;-69
2023/02/06 03:34:57;;;;;;;7.60;3.80;;;2.40;99.90;;;;;;5016253;28;20070;-69
2023/02/06 03:37:25;;;;;;;7.93;3.35;;;2.40;99.90;;;;;;5019005;28;20121;-70
2023/02/06 03:39:50;;;;;;;5.85;3.10;;;2.30;99.90;;;;;;5018937;28;20064;-70
2023/02/06 03:42:17;;;;;;;6.03;3.22;;;2.30;99.90;;;;;;5018997;28;20064;-69
2023/02/06 03:44:50;;;;;;;6.70;3.30;;;2.40;99.90;;;;;;5021643;28;20036;-70
2023/02/06 03:47:18;;;;;;;7.88;3.65;;;2.30;99.90;;;;;;5025215;28;20021;-70
2023/02/06 03:49:46;;;;;;;8.23;3.10;;;2.40;99.90;;;;;;5016307;28;20030;-70
2023/02/06 03:52:17;;;;;;;6.57;3.22;;;2.50;99.90;;;;;;5027376;28;20107;-70
2023/02/06 03:54:49;;;;;;;7.45;3.33;;;2.40;99.90;;;;;;5018653;28;20475;-71
2023/02/06 03:57:18;;;;;;;8.38;3.58;;;2.20;99.90;;;;;;5017546;28;20506;-69
2023/02/06 03:59:45;;;;;;;6.80;3.08;;;2.30;99.90;;;;;;5013287;28;20555;-69
2023/02/06 04:02:11;;;;;;;8.20;3.83;;;2.40;99.90;;;;;;5022082;28;20175;-68
2023/02/06 04:04:40;;;;;;;6.82;3.10;;;2.60;99.90;;;;;;5010087;28;20025;-68
2023/02/06 04:07:17;;;;;;;9.65;3.42;;;2.50;99.90;;;;;;5014967;28;20034;-68
2023/02/06 04:09:43;;;;;;;9.05;3.10;;;2.30;99.90;;;;;;5013719;28;20026;-70
2023/02/06 04:12:09;;;;;;;8.40;3.00;;;2.30;99.90;;;;;;5012675;28;21162;-69
2023/02/06 04:14:35;;;;;;;5.57;3.67;;;2.20;99.90;;;;;;5017119;28;20034;-68
2023/02/06 04:17:05;;;;;;;6.22;3.13;;;2.10;99.90;;;;;;5005327;28;20705;-69
2023/02/06 04:19:31;;;;;;;8.95;3.63;;;2.20;99.90;;;;;;5010959;28;20113;-69
2023/02/06 04:21:57;;;;;;;7.32;3.75;;;2.30;99.90;;;;;;5010862;28;20030;-69
2023/02/06 04:24:23;;;;;;;7.47;3.42;;;2.40;99.90;;;;;;5015928;28;20084;-69
2023/02/06 04:26:48;;;;;;;6.35;3.03;;;2.30;99.90;;;;;;5005663;28;20037;-69
2023/02/06 04:29:14;;;;;;;7.30;2.95;;;2.30;99.90;;;;;;5007518;28;20499;-69
2023/02/06 04:31:40;;;;;;;6.65;3.05;;;2.30;99.90;;;;;;5009302;28;20423;-69
2023/02/06 04:34:06;;;;;;;8.73;3.65;;;2.40;99.90;;;;;;5012049;28;20033;-68
2023/02/06 04:36:31;;;;;;;8.30;3.35;;;2.40;99.90;;;;;;5014241;28;20029;-69
2023/02/06 04:38:58;;;;;;;11.63;3.75;;;2.40;99.90;;;;;;5008822;28;26074;-69
2023/02/06 04:41:23;;;;;;;11.07;3.55;;;2.50;99.90;;;;;;5011391;28;20036;-69
2023/02/06 04:43:49;;;;;;;6.53;2.92;;;2.40;99.90;;;;;;5017342;28;20701;-69
2023/02/06 04:46:15;;;;;;;7.93;3.05;;;2.50;99.90;;;;;;5011093;28;20040;-69
2023/02/06 04:48:40;;;;;;;6.70;3.63;;;2.40;99.90;;;;;;5004138;28;20041;-69
2023/02/06 04:51:06;;;;;;;7.90;2.92;;;2.50;99.90;;;;;;5009129;28;20071;-69
2023/02/06 04:53:32;;;;;;;8.80;2.90;;;2.40;99.90;;;;;;5013369;28;20557;-69
2023/02/06 04:56:06;;;;;;;8.38;3.03;;;2.40;99.90;;;;;;5016833;28;20121;-69
2023/02/06 04:58:32;;;;;;;6.57;3.25;;;2.30;99.90;;;;;;5010756;28;20060;-69
2023/02/06 05:00:58;;;;;;;9.32;3.15;;;2.30;99.90;;;;;;5003757;28;20030;-69
2023/02/06 05:03:24;;;;;;;9.30;3.63;;;2.30;99.90;;;;;;5007160;28;20029;-69
2023/02/06 05:05:50;;;;;;;6.88;3.88;;;2.40;99.90;;;;;;5011705;28;20087;-69
2023/02/06 05:08:16;;;;;;;6.82;3.67;;;2.30;99.90;;;;;;5017190;28;20037;-69
2023/02/06 05:10:42;;;;;;;7.75;3.30;;;2.40;99.90;;;;;;5007475;28;20557;-69
2023/02/06 05:13:07;;;;;;;12.43;3.78;;;2.30;99.90;;;;;;5015135;28;20037;-69
2023/02/06 05:15:36;;;;;;;9.00;3.85;;;2.30;99.90;;;;;;5011858;28;20067;-69
2023/02/06 05:18:02;;;;;;;17.83;4.00;;;2.10;99.90;;;;;;5013228;28;20038;-69
2023/02/06 05:20:28;;;;;;;8.05;3.85;;;2.20;99.90;;;;;;5018902;28;20063;-69
2023/02/06 05:22:53;;;;;;;6.00;3.45;;;2.10;99.90;;;;;;5018240;28;20029;-70
2023/02/06 05:25:19;;;;;;;12.43;4.40;;;2.10;99.90;;;;;;5008006;28;20025;-69
2023/02/06 05:27:45;;;;;;;11.55;3.83;;;2.10;99.90;;;;;;5015494;28;20039;-69
2023/02/06 05:30:11;;;;;;;6.82;3.72;;;2.20;99.90;;;;;;5005614;28;20065;-69
2023/02/06 05:32:37;;;;;;;12.95;4.55;;;2.10;99.90;;;;;;5006602;28;20060;-69
2023/02/06 05:35:03;;;;;;;10.20;4.45;;;2.10;99.90;;;;;;5011109;28;20029;-69
2023/02/06 05:37:28;;;;;;;7.53;3.95;;;2.10;99.90;;;;;;5010966;28;20049;-69
2023/02/06 05:39:54;;;;;;;10.80;4.45;;;2.10;99.90;;;;;;5012342;28;20048;-69
2023/02/06 05:42:20;;;;;;;13.65;4.00;;;2.20;99.90;;;;;;5007967;28;20592;-69
2023/02/06 05:44:45;;;;;;;8.63;3.72;;;2.30;99.90;;;;;;5014380;28;20153;-69
2023/02/06 05:47:11;;;;;;;8.55;3.38;;;2.30;99.90;;;;;;5007640;28;20030;-69
2023/02/06 05:49:36;;;;;;;6.63;3.53;;;2.30;99.90;;;;;;5008474;28;20030;-69
2023/02/06 05:52:02;;;;;;;7.32;4.00;;;2.40;99.90;;;;;;5015772;28;20120;-69
2023/02/06 05:54:28;;;;;;;5.90;3.33;;;2.30;99.90;;;;;;5003165;28;20044;-69
2023/02/06 05:56:55;;;;;;;9.90;4.13;;;2.30;99.90;;;;;;5004049;28;20033;-69
2023/02/06 05:59:21;;;;;;;8.55;4.38;;;2.50;99.90;;;;;;5002690;28;20542;-69
2023/02/06 06:01:47;;;;;;;9.52;4.57;;;2.60;99.90;;;;;;5010865;28;20036;-69
2023/02/06 06:04:12;;;;;;;7.55;3.63;;;2.60;99.90;;;;;;5010400;28;20034;-69
2023/02/06 06:06:38;;;;;;;6.25;3.67;;;2.60;99.90;;;;;;5008834;28;20033;-69
2023/02/06 06:09:03;;;;;;;8.93;4.00;;;2.50;99.90;;;;;;5007836;28;20030;-69
2023/02/06 06:11:29;;;;;;;9.38;2.75;;;2.50;99.90;;;;;;5007918;28;20033;-69
2023/02/06 06:13:55;;;;;;;6.22;3.50;;;2.60;99.90;;;;;;5010015;28;20387;-69
2023/02/06 06:16:21;;;;;;;11.25;3.42;;;2.60;99.90;;;;;;5004168;28;20034;-69
2023/02/06 06:18:46;;;;;;;15.80;3.80;;;2.70;99.90;;;;;;5009718;28;20045;-69
2023/02/06 06:21:12;;;;;;;8.23;3.88;;;2.70;99.90;;;;;;5006091;28;20121;-69
2023/02/06 06:23:38;;;;;;;7.18;3.38;;;2.70;99.90;;;;;;5004981;28;20080;-69
2023/02/06 06:26:04;;;;;;;8.23;3.70;;;2.60;99.90;;;;;;5003992;28;20468;-70
2023/02/06 06:28:29;;;;;;;10.52;3.88;;;2.60;99.90;;;;;;5012403;28;20034;-69
2023/02/06 06:31:04;;;;;;;9.38;4.18;;;2.50;99.90;;;;;;5001810;28;20526;-69
2023/02/06 06:33:30;;;;;;;13.82;4.43;;;2.60;99.90;;;;;;5005062;28;20029;-69
2023/02/06 06:35:56;;;;;;;6.38;3.63;;;2.50;99.90;;;;;;5005106;28;20380;-69
2023/02/06 06:38:21;;;;;;;8.40;3.50;;;2.60;99.90;;;;;;5009046;28;20044;-69
2023/02/06 06:40:47;;;;;;;7.35;3.35;;;2.50;99.90;;;;;;5000867;28;20041;-69
2023/02/06 06:43:13;;;;;;;9.57;4.07;;;2.60;99.90;;;;;;5007817;28;20364;-69
2023/02/06 06:45:38;;;;;;;9.70;3.63;;;2.50;99.90;;;;;;5001790;28;20183;-69
2023/02/06 06:48:04;;;;;;;5.68;3.05;;;2.50;99.90;;;;;;5009675;28;20056;-69
2023/02/06 06:50:30;;;;;;;6.82;2.78;;;2.60;99.90;;;;;;4999812;28;20512;-69
2023/02/06 06:52:55;;;;;;;7.57;3.47;;;2.70;99.90;;;;;;5001176;28;20120;-69
2023/02/06 06:55:21;;;;;;;9.13;3.03;;;2.70;99.90;;;;;;5006711;28;20091;-69
2023/02/06 06:57:47;;;;;;;11.10;3.33;;;2.80;99.90;;;;;;5002128;28;20565;-69
2023/02/06 07:00:14;;;;;;;5.82;3.13;;;2.80;99.90;;;;;;5000841;28;20030;-69
2023/02/06 07:02:40;;;;;;;16.92;3.85;;;2.80;99.90;;;;;;5007250;28;20029;-69
2023/02/06 07:05:06;;;;;;;13.80;4.00;;;2.90;99.90;;;;;;5000676;28;20034;-69
2023/02/06 07:07:32;;;;;;;9.68;2.95;;;2.90;99.90;;;;;;5000245;28;20121;-69
2023/02/06 07:09:58;;;;;;;5.50;3.38;;;3.00;99.90;;;;;;5001219;28;20030;-69
2023/02/06 07:12:25;;;;;;;6.10;3.75;;;3.10;99.90;;;;;;5000658;28;20045;-69
2023/02/06 07:14:51;;;;;;;8.65;3.50;;;3.10;99.90;;;;;;5000684;28;20037;-69
2023/02/06 07:17:17;;;;;;;8.77;3.67;;;3.10;99.90;;;;;;5005233;28;20026;-69
2023/02/06 07:19:46;;;;;;;5.78;2.75;;;3.00;99.90;;;;;;5007713;28;20120;-69
2023/02/06 07:22:13;;;;;;;9.48;3.60;;;3.00;99.90;;;;;;5000902;28;20063;-69
2023/02/06 07:24:39;;;;;;;8.68;3.13;;;3.00;99.90;;;;;;5014297;28;20037;-69
2023/02/06 07:27:05;;;;;;;9.02;3.03;;;3.10;99.90;;;;;;5003086;28;20117;-69
2023/02/06 07:29:31;;;;;;;14.10;3.50;;;3.00;99.90;;;;;;5000138;28;20100;-69
2023/02/06 07:31:56;;;;;;;19.20;5.55;;;3.10;99.90;;;;;;5001012;28;20122;-69
2023/02/06 07:34:22;;;;;;;5.28;3.13;;;3.20;99.90;;;;;;4999073;28;20316;-69
2023/02/06 07:36:48;;;;;;;8.27;3.50;;;3.30;99.90;;;;;;5007912;28;20029;-69
2023/02/06 07:39:13;;;;;;;7.15;3.60;;;3.30;99.90;;;;;;5005534;28;20488;-69
2023/02/06 07:41:39;;;;;;;8.63;3.50;;;3.40;99.90;;;;;;5000152;28;20029;-68
2023/02/06 07:44:05;;;;;;;9.35;3.53;;;3.40;99.90;;;;;;5004697;28;20427;-70
2023/02/06 07:46:31;;;;;;;8.73;3.28;;;3.40;99.90;;;;;;5001151;28;20034;-70
2023/02/06 07:48:57;;;;;;;6.15;3.58;;;3.40;99.90;;;;;;5004461;28;20189;-70
2023/02/06 07:51:23;;;;;;;7.45;3.22;;;3.50;99.90;;;;;;5003946;28;20041;-71
2023/02/06 07:53:49;;;;;;;8.10;3.35;;;3.60;99.90;;;;;;5000387;28;20026;-71
2023/02/06 07:56:17;;;;;;;7.68;3.50;;;3.60;99.90;;;;;;5000457;28;20033;-70
2023/02/06 07:58:46;;;;;;;9.65;3.70;;;3.60;99.90;;;;;;4999683;28;20037;-70
2023/02/06 08:01:11;;;;;;;9.20;3.70;;;3.60;99.90;;;;;;5013009;28;20030;-70
2023/02/06 08:03:37;;;;;;;9.32;3.42;;;3.70;99.90;;;;;;5017931;28;20025;-70
2023/02/06 08:06:10;;;;;;;8.70;3.38;;;3.60;99.90;;;;;;5008410;28;20480;-71
2023/02/06 08:08:36;;;;;;;8.15;3.25;;;3.70;99.90;;;;;;5004182;28;20026;-70
2023/02/06 08:11:10;;;;;;;8.05;3.70;;;3.70;99.90;;;;;;5007980;28;20026;-71
2023/02/06 08:13:36;;;;;;;7.60;3.95;;;3.80;99.90;;;;;;5006513;28;20026;-70
2023/02/06 08:16:06;;;;;;;9.15;4.68;;;3.70;99.90;;;;;;5004702;28;20037;-70
2023/02/06 08:18:32;;;;;;;9.30;4.30;;;3.60;99.90;;;;;;5003205;28;20034;-69
2023/02/06 08:21:06;;;;;;;12.77;5.00;;;3.50;99.90;;;;;;5008347;28;20595;-69
2023/02/06 08:23:32;;;;;;;11.48;5.07;;;3.50;99.90;;;;;;5003944;28;20041;-70
2023/02/06 08:26:17;;;;;;;11.60;3.95;;;3.50;99.90;;;;;;5003581;28;20041;-70
2023/02/06 08:28:45;;;;;;;10.98;4.32;;;3.60;99.90;;;;;;5002616;28;20026;-70
2023/02/06 08:31:18;;;;;;;10.07;4.13;;;3.60;99.90;;;;;;5003646;28;20041;-70
2023/02/06 08:33:44;;;;;;;10.77;5.15;;;3.70;99.90;;;;;;5006536;28;20116;-70
2023/02/06 08:36:11;;;;;;;14.27;4.47;;;3.60;99.90;;;;;;5004888;28;20469;-70
2023/02/06 08:38:37;;;;;;;10.70;4.70;;;3.70;99.90;;;;;;5014395;28;20102;-70
2023/02/06 08:41:03;;;;;;;11.30;6.05;;;3.80;99.90;;;;;;5010444;28;20025;-70
2023/02/06 08:43:29;;;;;;;11.63;6.20;;;3.80;99.90;;;;;;5004448;28;20054;-70
2023/02/06 08:45:56;;;;;;;54.63;17.40;;;3.80;99.90;;;;;;5003569;28;20100;-70
2023/02/06 08:48:22;;;;;;;22.45;9.35;;;3.90;99.90;;;;;;5003942;28;20030;-70
2023/02/06 08:50:48;;;;;;;18.38;10.73;;;3.90;99.90;;;;;;5002381;28;20033;-70
2023/02/06 08:53:14;;;;;;;27.52;13.00;;;3.80;99.90;;;;;;5010044;28;20037;-70
2023/02/06 08:55:39;;;;;;;14.85;8.30;;;3.70;99.90;;;;;;5004470;28;20490;-70
2023/02/06 08:58:05;;;;;;;17.63;7.72;;;3.80;99.90;;;;;;5006369;28;20049;-71
2023/02/06 09:00:31;;;;;;;17.33;7.55;;;3.80;99.90;;;;;;5011712;28;20031;-70
2023/02/06 09:02:56;;;;;;;15.52;7.28;;;3.90;99.90;;;;;;5010384;28;20057;-71
2023/02/06 09:05:23;;;;;;;16.92;8.75;;;4.00;99.90;;;;;;5008735;28;20030;-70
2023/02/06 09:07:48;;;;;;;23.95;9.75;;;4.00;99.90;;;;;;5015461;28;20084;-70
2023/02/06 09:10:14;;;;;;;18.38;8.80;;;4.10;99.90;;;;;;5004975;28;21004;-69
2023/02/06 09:12:40;;;;;;;11.60;6.30;;;4.20;99.90;;;;;;5011132;28;20143;-68
2023/02/06 09:15:07;;;;;;;14.23;6.18;;;4.40;99.90;;;;;;5002974;28;20488;-68
2023/02/06 09:17:33;;;;;;;13.23;6.00;;;4.30;99.90;;;;;;5001670;28;20534;-68
2023/02/06 09:19:59;;;;;;;13.45;6.03;;;4.40;99.90;;;;;;5011475;28;20033;-68
2023/02/06 09:22:25;;;;;;;11.25;6.15;;;4.40;99.90;;;;;;5009773;28;20048;-68
2023/02/06 09:24:51;;;;;;;13.60;6.40;;;4.30;99.90;;;;;;5003086;28;20029;-68
2023/02/06 09:27:17;;;;;;;10.93;4.45;;;4.30;99.90;;;;;;5004227;28;20037;-68
2023/02/06 09:29:42;;;;;;;21.50;5.82;;;4.20;99.90;;;;;;5002979;28;20057;-68
2023/02/06 09:32:08;;;;;;;18.63;4.95;;;4.20;99.90;;;;;;5010684;28;20037;-68
2023/02/06 09:34:34;;;;;;;22.00;5.90;;;4.20;99.90;;;;;;5004106;28;20060;-69
2023/02/06 09:37:04;;;;;;;9.90;5.03;;;4.20;99.90;;;;;;5010378;28;20018;-68
2023/02/06 09:39:31;;;;;;;11.20;4.72;;;4.10;99.90;;;;;;5005213;28;20533;-68
2023/02/06 09:42:09;;;;;;;11.02;5.28;;;3.90;99.90;;;;;;5016339;28;20495;-68
2023/02/06 09:44:50;;;;;;;13.35;9.13;;;4.00;99.90;;;;;;5003616;28;20045;-68
2023/02/06 09:47:34;;;;;;;10.98;5.55;;;4.10;99.90;;;;;;5006428;28;20116;-68
2023/02/06 09:50:26;;;;;;;11.98;9.43;;;4.20;99.90;;;;;;5006780;28;20039;-68
2023/02/06 09:53:17;;;;;;;14.48;7.20;;;4.30;99.90;;;;;;5007184;28;20042;-68
2023/02/06 09:55:48;;;;;;;12.30;6.30;;;4.20;99.90;;;;;;5006579;28;20026;-68
2023/02/06 09:58:41;;;;;;;8.82;4.60;;;4.30;99.90;;;;;;5007110;28;20547;-68
2023/02/06 10:01:06;;;;;;;10.10;4.30;;;4.40;99.90;;;;;;5007002;28;20057;-68
2023/02/06 10:04:17;;;;;;;8.40;4.05;;;4.50;99.90;;;;;;5006694;28;20064;-69
2023/02/06 10:06:50;;;;;;;8.65;3.63;;;4.80;99.90;;;;;;5004125;28;20038;-69
2023/02/06 10:09:21;;;;;;;6.85;3.38;;;4.80;99.90;;;;;;5006822;28;20076;-70
2023/02/06 10:12:03;;;;;;;8.85;3.10;;;5.40;99.90;;;;;;5007036;28;20032;-69
2023/02/06 10:14:44;;;;;;;10.73;3.95;;;5.10;99.00;;;;;;5006212;28;20396;-69
2023/02/06 10:17:22;;;;;;;6.97;3.40;;;4.80;98.90;;;;;;5006570;28;20484;-69
2023/02/06 10:20:02;;;;;;;4.80;2.53;;;4.70;99.00;;;;;;5007575;28;20070;-69
2023/02/06 10:22:47;;;;;;;8.57;3.35;;;4.60;99.20;;;;;;5005878;28;20037;-69
2023/02/06 10:25:22;;;;;;;8.73;3.78;;;4.80;99.00;;;;;;5005122;28;20034;-69
2023/02/06 10:27:55;;;;;;;9.02;2.90;;;4.80;98.90;;;;;;5008627;28;20049;-68
2023/02/06 10:30:32;;;;;;;36.95;15.68;;;5.30;99.90;;;;;;5008645;28;20093;-69
2023/02/06 10:33:29;;;;;;;16.35;4.07;;;5.30;98.20;;;;;;5007132;28;20036;-69
2023/02/06 10:36:04;;;;;;;9.32;3.05;;;5.30;98.40;;;;;;4966969;28;20055;-69
2023/02/06 10:38:37;;;;;;;7.47;3.10;;;5.20;98.30;;;;;;5005940;28;20029;-69
2023/02/06 10:41:24;;;;;;;5.57;2.97;;;5.20;98.10;;;;;;5008786;28;20033;-69
2023/02/06 10:43:59;;;;;;;7.40;3.28;;;5.30;97.80;;;;;;5008473;28;20595;-69
2023/02/06 10:46:40;;;;;;;9.02;2.72;;;5.50;98.00;;;;;;5004297;28;20034;-69
2023/02/06 10:49:20;;;;;;;8.18;2.47;;;5.40;97.40;;;;;;5003651;28;20026;-69
2023/02/06 10:51:51;;;;;;;7.13;2.97;;;5.40;97.90;;;;;;5004626;28;20030;-69
2023/02/06 10:54:25;;;;;;;9.10;3.22;;;5.50;97.50;;;;;;5004808;28;20430;-69
2023/02/06 10:56:54;;;;;;;12.52;5.43;;;5.70;97.50;;;;;;5005139;28;20035;-69
2023/02/06 10:59:33;;;;;;;8.15;2.83;;;5.90;97.50;;;;;;5004215;28;20037;-69
2023/02/06 11:02:41;;;;;;;7.00;2.90;;;5.80;96.60;;;;;;5003680;28;20030;-69
2023/02/06 11:05:16;;;;;;;5.40;2.47;;;6.00;97.30;;;;;;5006210;28;20129;-69
2023/02/06 11:07:45;;;;;;;5.25;2.65;;;6.00;96.60;;;;;;5005132;28;20034;-69
2023/02/06 11:10:16;;;;;;;11.00;4.05;;;6.00;96.60;;;;;;5004239;28;20038;-69
2023/02/06 11:12:48;;;;;;;7.75;3.42;;;5.90;96.40;;;;;;5003318;28;20037;-69
2023/02/06 11:15:26;;;;;;;8.70;2.20;;;5.90;96.30;;;;;;5003824;28;20045;-69
2023/02/06 11:17:53;;;;;;;10.15;2.70;;;5.90;96.30;;;;;;5004431;28;20522;-69
2023/02/06 11:20:23;;;;;;;5.85;3.03;;;6.00;96.20;;;;;;5002238;28;20030;-69
2023/02/06 11:22:49;;;;;;;8.95;3.67;;;6.10;96.00;;;;;;5001236;28;20527;-69
2023/02/06 11:25:26;;;;;;;5.70;2.30;;;6.00;96.10;;;;;;5001172;28;20061;-69
2023/02/06 11:27:52;;;;;;;5.97;2.38;;;6.30;96.40;;;;;;5003506;28;20088;-69
2023/02/06 11:30:38;;;;;;;8.52;2.80;;;6.50;96.10;;;;;;5005035;28;20069;-69
2023/02/06 11:33:20;;;;;;;4.88;2.75;;;6.50;96.00;;;;;;5004844;28;20030;-69
2023/02/06 11:36:01;;;;;;;6.65;3.30;;;6.60;95.50;;;;;;5006027;28;20025;-69
2023/02/06 11:38:28;;;;;;;6.97;2.63;;;6.60;95.70;;;;;;5007190;28;20107;-69
2023/02/06 11:40:54;;;;;;;8.90;2.90;;;6.60;95.70;;;;;;5007452;28;20041;-69
2023/02/06 11:43:23;;;;;;;5.22;2.63;;;6.60;95.20;;;;;;5015605;28;20530;-69
2023/02/06 11:46:03;;;;;;;8.07;3.42;;;6.50;95.40;;;;;;5006804;28;20408;-69
2023/02/06 11:48:36;;;;;;;6.43;2.97;;;6.50;95.60;;;;;;5007555;28;20448;-69
2023/02/06 11:51:03;;;;;;;5.15;3.00;;;6.70;95.10;;;;;;5014334;28;20087;-69
2023/02/06 11:53:28;;;;;;;7.82;2.47;;;6.80;95.60;;;;;;5008468;28;20026;-69
2023/02/06 11:56:02;;;;;;;4.55;2.30;;;6.90;95.50;;;;;;5007178;28;21140;-69
2023/02/06 11:58:29;;;;;;;9.25;3.08;;;7.10;95.10;;;;;;5006528;28;20037;-69
2023/02/06 12:01:03;;;;;;;6.70;2.63;;;7.00;94.60;;;;;;5007086;28;20029;-69
2023/02/06 12:03:55;;;;;;;8.75;3.05;;;7.20;94.40;;;;;;5008116;28;20372;-69
2023/02/06 12:06:29;;;;;;;6.43;2.95;;;6.90;94.60;;;;;;5007212;28;20033;-69
2023/02/06 12:09:08;;;;;;;6.20;2.92;;;6.70;95.00;;;;;;5007777;28;20545;-69
2023/02/06 12:11:56;;;;;;;5.47;2.80;;;6.70;94.70;;;;;;5015544;28;20033;-69
2023/02/06 12:14:44;;;;;;;6.93;2.63;;;6.80;95.10;;;;;;5009166;28;20100;-69
2023/02/06 12:17:24;;;;;;;10.73;2.85;;;6.60;94.80;;;;;;5021515;28;20056;-69
2023/02/06 12:19:59;;;;;;;7.97;2.70;;;7.10;95.30;;;;;;5009384;28;20045;-69
2023/02/06 12:22:25;;;;;;;5.28;3.13;;;7.20;94.50;;;;;;5013883;28;20553;-69
2023/02/06 12:24:55;;;;;;;9.15;3.20;;;6.80;94.90;;;;;;5007807;28;20041;-69
2023/02/06 12:27:36;;;;;;;7.32;3.20;;;6.80;94.80;;;;;;5006077;28;20056;-69
2023/02/06 12:30:10;;;;;;;11.68;6.38;;;7.00;94.80;;;;;;5007530;28;20527;-69
2023/02/06 12:32:45;;;;;;;8.30;3.70;;;7.00;94.60;;;;;;5009128;28;20049;-69
2023/02/06 12:35:35;;;;;;;9.18;3.20;;;7.00;94.50;;;;;;5019461;28;20144;-69
2023/02/06 12:38:30;;;;;;;12.13;8.57;;;6.90;94.60;;;;;;5007616;28;20448;-69
2023/02/06 12:41:04;;;;;;;9.18;5.47;;;6.90;94.60;;;;;;5012845;28;20076;-69
2023/02/06 12:43:33;;;;;;;22.95;8.30;;;6.80;94.80;;;;;;5009070;28;20046;-69
2023/02/06 12:46:13;;;;;;;40.50;26.40;;;6.70;94.90;;;;;;5008647;28;20029;-69
2023/02/06 12:48:52;;;;;;;13.73;10.20;;;6.70;94.90;;;;;;5016773;28;20034;-69
2023/02/06 12:51:30;;;;;;;12.57;9.98;;;6.60;95.20;;;;;;5010800;28;20093;-69
2023/02/06 12:54:02;;;;;;;13.70;6.53;;;6.40;95.20;;;;;;5033522;28;20056;-69
2023/02/06 12:56:42;;;;;;;13.57;9.82;;;6.40;95.20;;;;;;5041089;28;20105;-69
2023/02/06 12:59:39;;;;;;;9.07;5.70;;;6.50;94.90;;;;;;5025835;28;20064;-69
2023/02/06 13:02:34;;;;;;;8.77;6.95;;;6.30;95.10;;;;;;5025156;28;20033;-69
2023/02/06 13:05:04;;;;;;;6.47;4.03;;;6.20;95.30;;;;;;5034355;28;21579;-69
2023/02/06 13:07:31;;;;;;;10.07;6.10;;;6.20;95.30;;;;;;5027240;28;20028;-69
2023/02/06 13:10:05;;;;;;;12.60;8.68;;;6.20;95.30;;;;;;5028015;28;20071;-70